createdAt,value
2023-05-16T00:02:07.494Z,60.89
2023-05-16T00:05:19.049Z,60.97
2023-05-16T00:08:29.765Z,61.07
2023-05-16T00:11:41.018Z,61.41
2023-05-16T00:14:50.497Z,61.50
2023-05-16T00:18:01.379Z,61.83
2023-05-16T00:21:12.853Z,61.92
2023-05-16T00:24:23.883Z,62.18
2023-05-16T00:27:27.724Z,62.37
2023-05-16T00:30:38.703Z,62.47
2023-05-16T00:33:49.943Z,62.68
2023-05-16T00:36:53.408Z,62.97
2023-05-16T00:40:05.197Z,63.15
2023-05-16T00:43:08.387Z,63.17
2023-05-16T00:46:19.646Z,63.39
2023-05-16T00:49:23.298Z,63.63
2023-05-16T00:52:34.604Z,63.78
2023-05-16T00:55:44.312Z,63.92
2023-05-16T00:58:55.109Z,64.07
2023-05-16T01:02:06.098Z,64.07
2023-05-16T01:05:16.980Z,64.26
2023-05-16T01:08:28.116Z,64.41
2023-05-16T01:11:35.422Z,64.45
2023-05-16T01:14:45.025Z,64.50
2023-05-16T01:17:52.801Z,64.63
2023-05-16T01:21:04.314Z,64.82
2023-05-16T01:24:02.113Z,65.05
2023-05-16T01:27:06.808Z,65.28
2023-05-16T01:30:18.730Z,65.62
2023-05-16T01:33:29.987Z,65.70
2023-05-16T01:36:34.449Z,65.60
2023-05-16T01:39:40.042Z,65.64
2023-05-16T01:42:52.228Z,65.94
2023-05-16T01:46:05.543Z,66.20
2023-05-16T01:49:17.466Z,66.02
2023-05-16T01:52:21.121Z,66.03
2023-05-16T01:56:10.441Z,66.30
2023-05-16T01:59:14.511Z,66.66
2023-05-16T02:02:21.053Z,66.94
2023-05-16T02:05:31.853Z,67.04
2023-05-16T02:08:42.655Z,67.27
2023-05-16T02:11:53.427Z,67.42
2023-05-16T02:14:59.454Z,67.61
2023-05-16T02:17:53.364Z,67.66
2023-05-16T02:21:02.706Z,67.59
2023-05-16T02:24:13.549Z,67.71
2023-05-16T02:27:24.332Z,67.94
2023-05-16T02:30:35.484Z,67.99
2023-05-16T02:33:31.899Z,68.06
2023-05-16T02:36:42.877Z,68.31
2023-05-16T02:39:54.191Z,68.36
2023-05-16T02:43:05.028Z,68.55
2023-05-16T02:46:26.681Z,68.70
2023-05-16T02:49:37.994Z,68.62
2023-05-16T02:52:49.948Z,68.92
2023-05-16T02:56:00.735Z,68.82
2023-05-16T02:59:12.327Z,68.96
2023-05-16T03:02:23.687Z,69.18
2023-05-16T03:05:34.637Z,69.10
2023-05-16T03:08:45.436Z,69.08
2023-05-16T03:11:57.137Z,69.33
2023-05-16T03:15:00.687Z,69.27
2023-05-16T03:18:12.499Z,69.36
2023-05-16T03:21:23.830Z,69.43
2023-05-16T03:24:34.699Z,69.33
2023-05-16T03:27:45.384Z,69.33
2023-05-16T03:30:55.030Z,69.20
2023-05-16T03:34:06.097Z,69.33
2023-05-16T03:37:16.880Z,69.33
2023-05-16T03:40:27.706Z,69.40
2023-05-16T03:43:38.936Z,69.60
2023-05-16T03:46:51.598Z,69.87
2023-05-16T03:50:08.245Z,70.14
2023-05-16T03:53:23.502Z,69.94
2023-05-16T03:56:33.185Z,69.85
2023-05-16T03:59:46.202Z,70.17
2023-05-16T04:02:50.724Z,70.54
2023-05-16T04:05:54.324Z,70.65
2023-05-16T04:09:09.176Z,70.58
2023-05-16T04:12:12.288Z,70.78
2023-05-16T04:15:12.960Z,70.80
2023-05-16T04:18:23.839Z,70.90
2023-05-16T04:21:29.642Z,71.03
2023-05-16T04:24:40.560Z,71.18
2023-05-16T04:27:54.690Z,71.39
2023-05-16T04:30:59.687Z,71.60
2023-05-16T04:34:10.543Z,71.86
2023-05-16T04:37:23.870Z,71.81
2023-05-16T04:40:46.423Z,71.80
2023-05-16T04:43:48.279Z,71.99
2023-05-16T04:47:01.900Z,72.00
2023-05-16T04:50:13.237Z,72.35
2023-05-16T04:53:26.902Z,72.48
2023-05-16T04:56:37.932Z,72.66
2023-05-16T05:00:16.603Z,72.71
2023-05-16T05:03:13.260Z,72.55
2023-05-16T05:06:29.741Z,72.28
2023-05-16T05:09:28.646Z,72.30
2023-05-16T05:12:29.909Z,72.20
2023-05-16T05:15:40.804Z,71.99
2023-05-16T05:18:54.138Z,71.73
2023-05-16T05:21:59.633Z,71.82
2023-05-16T05:25:03.306Z,71.69
2023-05-16T05:28:14.073Z,71.73
2023-05-16T05:31:10.832Z,71.76
2023-05-16T05:34:17.450Z,71.94
2023-05-16T05:37:10.877Z,71.96
2023-05-16T05:40:21.637Z,71.87
2023-05-16T05:43:32.882Z,72.04
2023-05-16T05:46:37.068Z,72.11
2023-05-16T05:49:48.673Z,72.37
2023-05-16T05:52:59.529Z,72.37
2023-05-16T05:56:10.755Z,72.25
2023-05-16T05:59:15.702Z,72.30
2023-05-16T06:02:26.975Z,72.40
2023-05-16T06:05:28.056Z,72.31
2023-05-16T06:08:31.776Z,72.10
2023-05-16T06:11:43.540Z,71.66
2023-05-16T06:14:54.898Z,71.54
2023-05-16T06:17:59.531Z,71.43
2023-05-16T06:21:10.782Z,71.37
2023-05-16T06:24:21.452Z,71.24
2023-05-16T06:27:32.460Z,71.11
2023-05-16T06:30:35.576Z,71.04
2023-05-16T06:33:46.780Z,71.10
2023-05-16T06:36:57.388Z,71.16
2023-05-16T06:40:09.073Z,70.93
2023-05-16T06:43:13.212Z,70.69
2023-05-16T06:46:16.904Z,70.75
2023-05-16T06:49:20.239Z,70.78
2023-05-16T06:52:31.101Z,70.85
2023-05-16T06:55:40.816Z,70.45
2023-05-16T06:58:42.444Z,70.39
2023-05-16T07:01:53.425Z,70.35
2023-05-16T07:05:04.286Z,69.94
2023-05-16T07:08:15.203Z,69.35
2023-05-16T07:11:13.429Z,69.31
2023-05-16T07:14:06.445Z,68.94
2023-05-16T07:17:16.619Z,68.71
2023-05-16T07:20:16.329Z,68.45
2023-05-16T07:23:10.147Z,68.15
2023-05-16T07:26:01.110Z,68.07
2023-05-16T07:29:12.301Z,67.81
2023-05-16T07:32:08.282Z,67.70
2023-05-16T07:35:19.150Z,67.64
2023-05-16T07:38:20.062Z,67.42
2023-05-16T07:41:10.985Z,66.86
2023-05-16T07:44:04.813Z,66.10
2023-05-16T07:46:58.462Z,65.25
2023-05-16T07:49:49.323Z,64.01
2023-05-16T07:52:40.012Z,62.69
2023-05-16T07:55:30.761Z,61.93
2023-05-16T07:58:21.478Z,60.40
2023-05-16T08:01:12.181Z,58.75
2023-05-16T08:04:02.919Z,57.34
2023-05-16T08:06:53.592Z,55.79
2023-05-16T08:09:44.319Z,54.55
2023-05-16T08:12:34.870Z,53.28
2023-05-16T08:15:26.215Z,52.13
2023-05-16T08:18:17.979Z,51.00
2023-05-16T08:21:10.384Z,49.79
2023-05-16T08:24:01.489Z,48.33
2023-05-16T08:26:52.072Z,46.31
2023-05-16T08:29:42.581Z,45.36
2023-05-16T08:32:35.922Z,44.92
2023-05-16T08:35:26.912Z,43.68
2023-05-16T08:38:18.167Z,43.08
2023-05-16T08:41:09.093Z,41.61
2023-05-16T08:43:59.720Z,40.23
2023-05-16T08:46:54.825Z,39.49
2023-05-16T08:49:45.417Z,38.67
2023-05-16T08:52:39.164Z,37.63
2023-05-16T08:55:30.010Z,36.83
2023-05-16T08:58:20.976Z,35.78
2023-05-16T09:01:11.889Z,35.62
2023-05-16T09:04:02.798Z,35.56
2023-05-16T09:06:53.435Z,34.82
2023-05-16T09:09:44.489Z,34.65
2023-05-16T09:12:35.245Z,34.17
2023-05-16T09:15:32.314Z,34.64
2023-05-16T09:18:23.241Z,33.70
2023-05-16T09:21:16.026Z,33.16
2023-05-16T09:24:06.924Z,32.71
2023-05-16T09:26:57.903Z,31.40
2023-05-16T09:29:51.849Z,30.82
2023-05-16T09:32:44.487Z,29.12
2023-05-16T09:35:45.095Z,28.94
2023-05-16T09:38:36.320Z,29.21
2023-05-16T09:41:26.806Z,28.29
2023-05-16T09:44:19.405Z,28.03
2023-05-16T09:47:10.086Z,28.41
2023-05-16T09:50:01.785Z,29.42
2023-05-16T09:52:52.750Z,30.25
2023-05-16T09:55:43.551Z,30.52
2023-05-16T09:58:34.970Z,31.00
2023-05-16T10:01:25.845Z,31.58
2023-05-16T10:04:16.758Z,31.25
2023-05-16T10:07:11.280Z,31.01
2023-05-16T10:10:02.447Z,30.43
2023-05-16T10:12:53.240Z,30.11
2023-05-16T10:15:44.412Z,29.53
2023-05-16T10:18:37.181Z,29.46
2023-05-16T10:21:29.930Z,29.30
2023-05-16T10:24:23.012Z,28.54
2023-05-16T10:27:14.184Z,27.08
2023-05-16T10:30:05.988Z,26.31
2023-05-16T10:32:58.077Z,26.06
2023-05-16T10:35:48.839Z,26.81
2023-05-16T10:38:39.970Z,27.09
2023-05-16T10:41:30.765Z,27.92
2023-05-16T10:44:21.466Z,28.66
2023-05-16T10:47:12.301Z,27.92
2023-05-16T10:50:02.965Z,27.18
2023-05-16T10:52:55.858Z,27.07
2023-05-16T10:56:07.245Z,27.93
2023-05-16T10:58:57.925Z,28.91
2023-05-16T11:01:53.904Z,29.77
2023-05-16T11:04:51.841Z,29.64
2023-05-16T11:07:42.425Z,30.26
2023-05-16T11:10:33.256Z,29.51
2023-05-16T11:13:25.898Z,28.47
2023-05-16T11:16:31.986Z,29.00
2023-05-16T11:19:33.321Z,30.44
2023-05-16T11:22:28.497Z,31.35
2023-05-16T11:25:36.268Z,31.77
2023-05-16T11:28:27.634Z,31.57
2023-05-16T11:31:19.561Z,30.01
2023-05-16T11:34:11.199Z,28.94
2023-05-16T11:37:02.362Z,27.77
2023-05-16T11:39:54.012Z,27.38
2023-05-16T11:42:44.954Z,27.02
2023-05-16T11:45:35.995Z,27.46
2023-05-16T11:48:35.618Z,26.50
2023-05-16T11:51:26.979Z,25.53
2023-05-16T11:54:17.510Z,24.71
2023-05-16T11:57:08.298Z,24.08
2023-05-16T12:00:04.486Z,22.78
2023-05-16T12:02:56.291Z,21.99
2023-05-16T12:05:54.180Z,22.73
2023-05-16T12:08:52.920Z,24.00
2023-05-16T12:11:44.857Z,23.24
2023-05-16T12:14:35.872Z,22.18
2023-05-16T12:17:29.584Z,22.48
2023-05-16T12:20:20.337Z,23.70
2023-05-16T12:23:13.750Z,23.93
2023-05-16T12:26:07.189Z,23.82
2023-05-16T12:29:00.949Z,24.89
2023-05-16T12:31:54.815Z,25.49
2023-05-16T12:34:50.375Z,26.98
2023-05-16T12:37:41.088Z,27.87
2023-05-16T12:40:31.839Z,28.92
2023-05-16T12:43:24.103Z,29.60
2023-05-16T12:46:14.515Z,29.66
2023-05-16T12:49:06.553Z,29.83
2023-05-16T12:52:05.796Z,29.89
2023-05-16T12:54:56.436Z,29.35
2023-05-16T12:57:47.969Z,29.25
2023-05-16T13:00:39.273Z,27.82
2023-05-16T13:03:29.621Z,26.41
2023-05-16T13:06:20.874Z,25.70
2023-05-16T13:09:12.708Z,25.70
2023-05-16T13:12:03.194Z,25.31
2023-05-16T13:14:54.577Z,25.34
2023-05-16T13:17:45.561Z,26.17
2023-05-16T13:20:36.066Z,27.18
2023-05-16T13:23:27.429Z,27.22
2023-05-16T13:26:18.411Z,27.14
2023-05-16T13:29:10.004Z,27.90
2023-05-16T13:32:01.301Z,28.50
2023-05-16T13:34:52.096Z,28.75
2023-05-16T13:37:42.747Z,29.01
2023-05-16T13:40:33.652Z,29.51
2023-05-16T13:43:24.314Z,30.19
2023-05-16T13:46:15.908Z,31.18
2023-05-16T13:49:07.208Z,31.97
2023-05-16T13:51:58.802Z,31.26
2023-05-16T13:54:49.709Z,30.55
2023-05-16T13:57:40.646Z,30.07
2023-05-16T14:00:44.090Z,30.27
2023-05-16T14:03:36.833Z,30.42
2023-05-16T14:06:27.460Z,30.48
2023-05-16T14:09:18.842Z,30.77
2023-05-16T14:12:10.357Z,31.26
2023-05-16T14:15:01.023Z,31.64
2023-05-16T14:17:51.777Z,31.74
2023-05-16T14:20:43.039Z,32.10
2023-05-16T14:23:33.969Z,32.52
2023-05-16T14:26:25.729Z,32.99
2023-05-16T14:29:17.147Z,33.55
2023-05-16T14:32:08.682Z,33.95
2023-05-16T14:34:59.401Z,34.24
2023-05-16T14:37:50.200Z,34.65
2023-05-16T14:40:40.876Z,34.61
2023-05-16T14:43:31.494Z,34.47
2023-05-16T14:46:22.973Z,34.30
2023-05-16T14:49:13.683Z,34.64
2023-05-16T14:52:04.089Z,35.00
2023-05-16T14:54:54.622Z,34.83
2023-05-16T14:57:45.814Z,34.76
2023-05-16T15:00:37.183Z,34.28
2023-05-16T15:03:28.237Z,33.89
2023-05-16T15:06:18.964Z,33.85
2023-05-16T15:09:09.569Z,33.97
2023-05-16T15:12:00.117Z,34.06
2023-05-16T15:14:50.674Z,34.47
2023-05-16T15:17:41.976Z,34.75
2023-05-16T15:20:34.572Z,34.38
2023-05-16T15:23:25.097Z,33.51
2023-05-16T15:26:15.746Z,33.46
2023-05-16T15:29:06.271Z,33.25
2023-05-16T15:31:57.559Z,33.35
2023-05-16T15:34:48.090Z,34.14
2023-05-16T15:37:39.048Z,33.96
2023-05-16T15:40:29.759Z,34.27
2023-05-16T15:43:20.753Z,34.25
2023-05-16T15:46:11.900Z,33.89
2023-05-16T15:49:02.566Z,34.12
2023-05-16T15:51:53.701Z,34.49
2023-05-16T15:54:44.274Z,34.32
2023-05-16T15:57:34.844Z,34.25
2023-05-16T16:00:25.585Z,34.26
2023-05-16T16:03:16.250Z,34.35
2023-05-16T16:06:06.955Z,34.46
2023-05-16T16:08:57.412Z,34.00
2023-05-16T16:11:48.050Z,34.24
2023-05-16T16:14:38.550Z,34.23
2023-05-16T16:17:29.085Z,34.17
2023-05-16T16:20:19.949Z,34.31
2023-05-16T16:23:10.742Z,34.56
2023-05-16T16:26:01.719Z,34.90
2023-05-16T16:28:52.349Z,35.03
2023-05-16T16:31:42.842Z,34.55
2023-05-16T16:34:36.106Z,34.54
2023-05-16T16:37:26.830Z,34.84
2023-05-16T16:40:17.658Z,35.02
2023-05-16T16:43:14.046Z,34.74
2023-05-16T16:46:06.821Z,34.93
2023-05-16T16:49:05.986Z,34.96
2023-05-16T16:51:59.627Z,34.93
2023-05-16T16:54:53.221Z,35.31
2023-05-16T16:57:45.415Z,35.45
2023-05-16T17:00:35.928Z,35.36
2023-05-16T17:03:26.899Z,35.56
2023-05-16T17:06:17.782Z,35.53
2023-05-16T17:09:13.844Z,35.75
2023-05-16T17:12:10.359Z,36.15
2023-05-16T17:15:03.716Z,36.78
2023-05-16T17:17:56.855Z,37.26
2023-05-16T17:20:51.367Z,37.55
2023-05-16T17:23:45.092Z,37.57
2023-05-16T17:26:39.859Z,37.58
2023-05-16T17:29:30.509Z,37.53
2023-05-16T17:32:21.648Z,37.29
2023-05-16T17:35:12.244Z,37.37
2023-05-16T17:38:05.969Z,37.28
2023-05-16T17:41:00.714Z,36.89
2023-05-16T17:43:51.446Z,37.16
2023-05-16T17:46:42.774Z,37.32
2023-05-16T17:49:33.426Z,37.16
2023-05-16T17:52:29.684Z,37.03
2023-05-16T17:55:20.497Z,36.81
2023-05-16T17:58:18.136Z,36.97
2023-05-16T18:01:22.502Z,37.08
2023-05-16T18:04:16.163Z,37.20
2023-05-16T18:07:08.431Z,37.09
2023-05-16T18:09:59.129Z,37.18
2023-05-16T18:12:49.857Z,37.57
2023-05-16T18:15:40.853Z,37.71
2023-05-16T18:18:39.661Z,37.78
2023-05-16T18:21:30.992Z,37.91
2023-05-16T18:24:25.476Z,38.07
2023-05-16T18:27:16.587Z,38.29
2023-05-16T18:30:11.165Z,38.44
2023-05-16T18:33:06.611Z,38.71
2023-05-16T18:35:57.254Z,38.75
2023-05-16T18:38:47.957Z,38.65
2023-05-16T18:41:38.601Z,38.69
2023-05-16T18:44:29.165Z,38.96
2023-05-16T18:47:21.061Z,39.13
2023-05-16T18:50:12.571Z,39.45
2023-05-16T18:53:03.079Z,39.46
2023-05-16T18:55:53.787Z,39.55
2023-05-16T18:58:44.277Z,39.49
2023-05-16T19:01:34.888Z,39.73
2023-05-16T19:04:25.517Z,39.94
2023-05-16T19:07:16.202Z,40.11
2023-05-16T19:10:07.568Z,40.10
2023-05-16T19:13:01.553Z,40.20
2023-05-16T19:15:53.508Z,40.24
2023-05-16T19:18:44.162Z,40.34
2023-05-16T19:21:35.051Z,40.61
2023-05-16T19:24:25.654Z,40.83
2023-05-16T19:27:16.296Z,41.08
2023-05-16T19:30:08.179Z,41.56
2023-05-16T19:32:58.744Z,41.94
2023-05-16T19:35:51.661Z,42.25
2023-05-16T19:38:41.864Z,42.42
2023-05-16T19:41:32.423Z,42.73
2023-05-16T19:44:23.007Z,43.10
2023-05-16T19:47:13.619Z,43.29
2023-05-16T19:50:04.580Z,43.50
2023-05-16T19:52:55.157Z,43.69
2023-05-16T19:55:46.899Z,43.72
2023-05-16T19:58:37.549Z,44.15
2023-05-16T20:01:33.737Z,44.38
2023-05-16T20:04:24.508Z,44.55
2023-05-16T20:07:15.183Z,44.99
2023-05-16T20:10:10.529Z,45.20
2023-05-16T20:13:06.696Z,45.38
2023-05-16T20:16:02.785Z,45.59
2023-05-16T20:18:53.505Z,45.84
2023-05-16T20:21:48.894Z,46.13
2023-05-16T20:24:44.930Z,46.53
2023-05-16T20:27:37.959Z,46.90
2023-05-16T20:30:30.204Z,47.28
2023-05-16T20:33:21.089Z,47.64
2023-05-16T20:36:11.865Z,47.93
2023-05-16T20:39:02.415Z,48.19
2023-05-16T20:41:55.623Z,48.58
2023-05-16T20:44:48.523Z,48.83
2023-05-16T20:47:39.126Z,49.17
2023-05-16T20:50:32.350Z,49.46
2023-05-16T20:53:26.311Z,49.48
2023-05-16T20:56:16.919Z,49.69
2023-05-16T20:59:07.488Z,49.87
2023-05-16T21:02:00.524Z,50.22
2023-05-16T21:04:51.534Z,50.31
2023-05-16T21:07:42.526Z,50.49
2023-05-16T21:10:33.100Z,50.83
2023-05-16T21:13:24.546Z,50.94
2023-05-16T21:16:15.083Z,51.11
2023-05-16T21:19:05.893Z,51.24
2023-05-16T21:21:56.309Z,51.41
2023-05-16T21:24:46.806Z,51.50
2023-05-16T21:27:40.674Z,51.45
2023-05-16T21:30:33.591Z,51.57
2023-05-16T21:33:26.840Z,52.03
2023-05-16T21:36:17.412Z,52.23
2023-05-16T21:39:08.253Z,52.13
2023-05-16T21:41:59.041Z,52.07
2023-05-16T21:44:49.690Z,52.26
2023-05-16T21:47:40.753Z,52.26
2023-05-16T21:50:31.617Z,52.14
2023-05-16T21:53:24.307Z,52.42
2023-05-16T21:56:26.226Z,52.64
2023-05-16T21:59:16.938Z,52.78
2023-05-16T22:02:08.343Z,52.91
2023-05-16T22:05:00.937Z,53.08
2023-05-16T22:07:51.632Z,53.35
2023-05-16T22:10:56.967Z,53.72
2023-05-16T22:13:47.649Z,53.96
2023-05-16T22:16:38.423Z,54.07
2023-05-16T22:19:49.308Z,54.25
2023-05-16T22:22:40.276Z,54.53
2023-05-16T22:25:41.568Z,54.77
2023-05-16T22:28:42.394Z,54.85
2023-05-16T22:31:35.836Z,54.91
2023-05-16T22:34:26.607Z,55.20
2023-05-16T22:37:17.200Z,55.33
2023-05-16T22:40:09.150Z,55.55
2023-05-16T22:43:08.822Z,55.72
2023-05-16T22:46:09.783Z,55.89
2023-05-16T22:49:20.634Z,55.92
2023-05-16T22:52:25.667Z,55.97
2023-05-16T22:55:36.509Z,56.10
2023-05-16T22:58:38.299Z,56.27
2023-05-16T23:01:37.618Z,56.63
2023-05-16T23:04:35.983Z,56.67
2023-05-16T23:07:30.536Z,56.67
2023-05-16T23:10:34.089Z,56.58
2023-05-16T23:13:38.746Z,56.74
2023-05-16T23:16:42.406Z,56.86
2023-05-16T23:19:37.832Z,56.82
2023-05-16T23:22:48.923Z,56.83
2023-05-16T23:25:44.498Z,56.89
2023-05-16T23:28:37.004Z,56.94
2023-05-16T23:31:37.679Z,56.98
2023-05-16T23:34:39.609Z,57.18
2023-05-16T23:37:31.264Z,57.22
2023-05-16T23:40:31.829Z,57.34
2023-05-16T23:43:42.919Z,57.61
2023-05-16T23:46:53.730Z,57.80
2023-05-16T23:49:47.714Z,57.90
2023-05-16T23:52:38.294Z,57.99
2023-05-16T23:55:29.195Z,57.95
2023-05-16T23:58:22.919Z,57.98
